sensor_id;sensor_type;location;lat;lon;timestamp;pressure;altitude;pressure_sealevel;temperature;humidity
57606;BME280;43430;48.204;11.556;2023-05-10T00:00:04;95619.06;;;12.22;100.00
57606;BME280;43430;48.204;11.556;2023-05-10T00:02:30;95615.59;;;12.21;100.00
57606;BME280;43430;48.204;11.556;2023-05-10T00:04:55;95616.34;;;12.17;100.00
57606;BME280;43430;48.204;11.556;2023-05-10T00:07:20;95619.31;;;12.20;100.00
57606;BME280;43430;48.204;11.556;2023-05-10T00:09:46;95615.06;;;12.19;100.00
57606;BME280;43430;48.204;11.556;2023-05-10T00:12:11;95618.25;;;12.21;100.00
57606;BME280;43430;48.204;11.556;2023-05-10T00:14:37;95617.47;;;12.21;100.00
57606;BME280;43430;48.204;11.556;2023-05-10T00:17:02;95614.28;;;12.19;100.00
57606;BME280;43430;48.204;11.556;2023-05-10T00:19:27;95617.94;;;12.18;100.00
57606;BME280;43430;48.204;11.556;2023-05-10T00:21:53;95610.25;;;12.16;100.00
57606;BME280;43430;48.204;11.556;2023-05-10T00:24:18;95608.81;;;12.08;100.00
57606;BME280;43430;48.204;11.556;2023-05-10T00:26:43;95606.41;;;12.07;100.00
57606;BME280;43430;48.204;11.556;2023-05-10T00:29:09;95603.06;;;12.11;100.00
57606;BME280;43430;48.204;11.556;2023-05-10T00:31:34;95603.28;;;12.10;100.00
57606;BME280;43430;48.204;11.556;2023-05-10T00:34:00;95605.91;;;12.10;100.00
57606;BME280;43430;48.204;11.556;2023-05-10T00:36:25;95602.72;;;12.08;100.00
57606;BME280;43430;48.204;11.556;2023-05-10T00:38:51;95604.81;;;12.06;100.00
57606;BME280;43430;48.204;11.556;2023-05-10T00:41:16;95600.00;;;12.03;100.00
57606;BME280;43430;48.204;11.556;2023-05-10T00:43:41;95601.03;;;12.02;100.00
57606;BME280;43430;48.204;11.556;2023-05-10T00:46:07;95601.59;;;12.04;100.00
57606;BME280;43430;48.204;11.556;2023-05-10T00:48:33;95599.41;;;12.01;100.00
57606;BME280;43430;48.204;11.556;2023-05-10T00:50:59;95597.13;;;12.04;100.00
57606;BME280;43430;48.204;11.556;2023-05-10T00:53:24;95597.03;;;11.99;100.00
57606;BME280;43430;48.204;11.556;2023-05-10T00:55:50;95593.59;;;11.99;100.00
57606;BME280;43430;48.204;11.556;2023-05-10T00:58:16;95587.84;;;12.02;100.00
57606;BME280;43430;48.204;11.556;2023-05-10T01:00:42;95595.19;;;12.00;100.00
57606;BME280;43430;48.204;11.556;2023-05-10T01:03:11;95591.50;;;12.01;100.00
57606;BME280;43430;48.204;11.556;2023-05-10T01:05:36;95585.19;;;12.02;100.00
57606;BME280;43430;48.204;11.556;2023-05-10T01:08:02;95584.13;;;12.03;100.00
57606;BME280;43430;48.204;11.556;2023-05-10T01:10:27;95587.84;;;12.02;100.00
57606;BME280;43430;48.204;11.556;2023-05-10T01:12:53;95586.00;;;12.02;100.00
57606;BME280;43430;48.204;11.556;2023-05-10T01:15:20;95587.50;;;11.98;100.00
57606;BME280;43430;48.204;11.556;2023-05-10T01:17:47;95588.06;;;12.00;100.00
57606;BME280;43430;48.204;11.556;2023-05-10T01:20:14;95589.59;;;11.96;100.00
57606;BME280;43430;48.204;11.556;2023-05-10T01:33:41;95587.19;;;11.95;100.00
57606;BME280;43430;48.204;11.556;2023-05-10T01:36:40;95580.28;;;11.94;100.00
57606;BME280;43430;48.204;11.556;2023-05-10T01:39:15;95586.06;;;11.91;100.00
57606;BME280;43430;48.204;11.556;2023-05-10T01:44:24;95587.03;;;11.84;100.00
57606;BME280;43430;48.204;11.556;2023-05-10T01:46:59;95585.38;;;11.83;100.00
57606;BME280;43430;48.204;11.556;2023-05-10T01:49:31;95584.25;;;11.79;100.00
57606;BME280;43430;48.204;11.556;2023-05-10T01:52:06;95577.84;;;11.75;100.00
57606;BME280;43430;48.204;11.556;2023-05-10T01:54:33;95577.38;;;11.78;100.00
57606;BME280;43430;48.204;11.556;2023-05-10T01:57:03;95579.44;;;11.76;100.00
57606;BME280;43430;48.204;11.556;2023-05-10T01:59:33;95586.25;;;11.72;100.00
57606;BME280;43430;48.204;11.556;2023-05-10T02:02:02;95584.06;;;11.69;100.00
57606;BME280;43430;48.204;11.556;2023-05-10T02:04:30;95584.88;;;11.70;100.00
57606;BME280;43430;48.204;11.556;2023-05-10T02:06:57;95586.34;;;11.77;100.00
57606;BME280;43430;48.204;11.556;2023-05-10T02:09:23;95579.91;;;11.73;100.00
57606;BME280;43430;48.204;11.556;2023-05-10T02:11:51;95575.81;;;11.65;100.00
57606;BME280;43430;48.204;11.556;2023-05-10T02:14:18;95589.03;;;11.65;100.00
57606;BME280;43430;48.204;11.556;2023-05-10T02:16:44;95588.22;;;11.65;100.00
57606;BME280;43430;48.204;11.556;2023-05-10T02:19:11;95585.59;;;11.65;100.00
57606;BME280;43430;48.204;11.556;2023-05-10T02:21:39;95587.19;;;11.66;100.00
57606;BME280;43430;48.204;11.556;2023-05-10T02:24:07;95593.84;;;11.69;100.00
57606;BME280;43430;48.204;11.556;2023-05-10T02:26:34;95587.50;;;11.70;100.00
57606;BME280;43430;48.204;11.556;2023-05-10T02:29:02;95585.13;;;11.68;100.00
57606;BME280;43430;48.204;11.556;2023-05-10T02:31:33;95588.81;;;11.67;100.00
57606;BME280;43430;48.204;11.556;2023-05-10T02:34:01;95590.97;;;11.70;100.00
57606;BME280;43430;48.204;11.556;2023-05-10T02:36:28;95595.94;;;11.67;100.00
57606;BME280;43430;48.204;11.556;2023-05-10T02:38:54;95591.19;;;11.69;100.00
57606;BME280;43430;48.204;11.556;2023-05-10T02:41:21;95585.69;;;11.70;100.00
57606;BME280;43430;48.204;11.556;2023-05-10T02:43:50;95590.97;;;11.70;100.00
57606;BME280;43430;48.204;11.556;2023-05-10T02:46:17;95582.16;;;11.64;100.00
57606;BME280;43430;48.204;11.556;2023-05-10T02:48:42;95589.84;;;11.66;100.00
57606;BME280;43430;48.204;11.556;2023-05-10T02:51:08;95592.78;;;11.70;100.00
57606;BME280;43430;48.204;11.556;2023-05-10T02:53:36;95590.97;;;11.70;100.00
57606;BME280;43430;48.204;11.556;2023-05-10T02:56:05;95589.94;;;11.71;100.00
57606;BME280;43430;48.204;11.556;2023-05-10T02:58:34;95586.50;;;11.71;100.00
57606;BME280;43430;48.204;11.556;2023-05-10T03:01:00;95586.97;;;11.68;100.00
57606;BME280;43430;48.204;11.556;2023-05-10T03:03:25;95589.34;;;11.69;100.00
57606;BME280;43430;48.204;11.556;2023-05-10T03:05:51;95598.31;;;11.68;100.00
57606;BME280;43430;48.204;11.556;2023-05-10T03:08:18;95586.97;;;11.68;100.00
57606;BME280;43430;48.204;11.556;2023-05-10T03:10:59;95591.34;;;11.62;100.00
57606;BME280;43430;48.204;11.556;2023-05-10T03:13:39;95592.72;;;11.64;100.00
57606;BME280;43430;48.204;11.556;2023-05-10T03:16:13;95592.56;;;11.71;100.00
57606;BME280;43430;48.204;11.556;2023-05-10T03:21:13;95600.16;;;11.68;100.00
57606;BME280;43430;48.204;11.556;2023-05-10T03:24:07;95599.91;;;11.69;100.00
57606;BME280;43430;48.204;11.556;2023-05-10T03:26:31;95601.69;;;11.63;100.00
57606;BME280;43430;48.204;11.556;2023-05-10T03:28:57;95603.59;;;11.68;100.00
57606;BME280;43430;48.204;11.556;2023-05-10T03:31:24;95605.31;;;11.74;100.00
57606;BME280;43430;48.204;11.556;2023-05-10T03:33:50;95612.66;;;11.72;100.00
57606;BME280;43430;48.204;11.556;2023-05-10T03:36:16;95612.44;;;11.74;100.00
57606;BME280;43430;48.204;11.556;2023-05-10T03:38:42;95609.53;;;11.75;100.00
57606;BME280;43430;48.204;11.556;2023-05-10T03:41:07;95612.75;;;11.77;100.00
57606;BME280;43430;48.204;11.556;2023-05-10T03:43:33;95614.81;;;11.75;100.00
57606;BME280;43430;48.204;11.556;2023-05-10T03:45:58;95610.81;;;11.73;100.00
57606;BME280;43430;48.204;11.556;2023-05-10T03:48:26;95614.75;;;11.70;100.00
57606;BME280;43430;48.204;11.556;2023-05-10T03:50:51;95617.88;;;11.67;100.00
57606;BME280;43430;48.204;11.556;2023-05-10T03:53:16;95613.59;;;11.66;100.00
57606;BME280;43430;48.204;11.556;2023-05-10T03:55:42;95621.06;;;11.69;100.00
57606;BME280;43430;48.204;11.556;2023-05-10T03:58:10;95622.16;;;11.73;100.00
57606;BME280;43430;48.204;11.556;2023-05-10T04:00:36;95634.84;;;11.71;100.00
57606;BME280;43430;48.204;11.556;2023-05-10T04:03:02;95616.34;;;11.71;100.00
57606;BME280;43430;48.204;11.556;2023-05-10T04:05:27;95628.75;;;11.71;100.00
57606;BME280;43430;48.204;11.556;2023-05-10T04:07:52;95624.91;;;11.78;100.00
57606;BME280;43430;48.204;11.556;2023-05-10T04:10:18;95625.38;;;11.75;100.00
57606;BME280;43430;48.204;11.556;2023-05-10T04:12:43;95626.66;;;11.73;100.00
57606;BME280;43430;48.204;11.556;2023-05-10T04:15:09;95631.72;;;11.74;100.00
57606;BME280;43430;48.204;11.556;2023-05-10T04:17:34;95632.75;;;11.73;100.00
57606;BME280;43430;48.204;11.556;2023-05-10T04:20:00;95628.66;;;11.65;100.00
57606;BME280;43430;48.204;11.556;2023-05-10T04:22:25;95624.41;;;11.64;100.00
57606;BME280;43430;48.204;11.556;2023-05-10T04:24:51;95630.97;;;11.62;100.00
57606;BME280;43430;48.204;11.556;2023-05-10T04:27:16;95633.59;;;11.62;100.00
57606;BME280;43430;48.204;11.556;2023-05-10T04:29:41;95636.09;;;11.69;100.00
57606;BME280;43430;48.204;11.556;2023-05-10T04:32:07;95635.88;;;11.70;100.00
57606;BME280;43430;48.204;11.556;2023-05-10T04:34:33;95632.19;;;11.71;100.00
57606;BME280;43430;48.204;11.556;2023-05-10T04:36:59;95635.78;;;11.65;100.00
57606;BME280;43430;48.204;11.556;2023-05-10T04:39:24;95642.44;;;11.68;100.00
57606;BME280;43430;48.204;11.556;2023-05-10T04:41:50;95634.72;;;11.66;100.00
57606;BME280;43430;48.204;11.556;2023-05-10T04:44:15;95637.38;;;11.66;100.00
57606;BME280;43430;48.204;11.556;2023-05-10T04:46:40;95634.66;;;11.61;100.00
57606;BME280;43430;48.204;11.556;2023-05-10T04:49:06;95640.72;;;11.61;100.00
57606;BME280;43430;48.204;11.556;2023-05-10T04:51:31;95636.50;;;11.60;100.00
57606;BME280;43430;48.204;11.556;2023-05-10T04:53:57;95644.56;;;11.54;100.00
57606;BME280;43430;48.204;11.556;2023-05-10T04:56:22;95643.75;;;11.53;100.00
57606;BME280;43430;48.204;11.556;2023-05-10T04:58:47;95637.69;;;11.53;100.00
57606;BME280;43430;48.204;11.556;2023-05-10T05:01:13;95650.28;;;11.51;100.00
57606;BME280;43430;48.204;11.556;2023-05-10T05:03:39;95650.22;;;11.34;100.00
57606;BME280;43430;48.204;11.556;2023-05-10T05:06:04;95657.69;;;11.37;100.00
57606;BME280;43430;48.204;11.556;2023-05-10T05:08:30;95666.53;;;11.31;100.00
57606;BME280;43430;48.204;11.556;2023-05-10T05:10:55;95672.41;;;11.21;100.00
57606;BME280;43430;48.204;11.556;2023-05-10T05:13:20;95673.91;;;11.17;100.00
57606;BME280;43430;48.204;11.556;2023-05-10T05:15:46;95682.19;;;11.09;100.00
57606;BME280;43430;48.204;11.556;2023-05-10T05:18:11;95681.72;;;11.12;100.00
57606;BME280;43430;48.204;11.556;2023-05-10T05:20:36;95685.16;;;11.12;100.00
57606;BME280;43430;48.204;11.556;2023-05-10T05:23:02;95687.34;;;11.15;100.00
57606;BME280;43430;48.204;11.556;2023-05-10T05:25:27;95686.88;;;11.07;100.00
57606;BME280;43430;48.204;11.556;2023-05-10T05:27:53;95691.28;;;11.01;100.00
57606;BME280;43430;48.204;11.556;2023-05-10T05:30:19;95694.47;;;10.68;100.00
57606;BME280;43430;48.204;11.556;2023-05-10T05:32:44;95693.78;;;10.61;100.00
57606;BME280;43430;48.204;11.556;2023-05-10T05:35:09;95691.72;;;10.51;100.00
57606;BME280;43430;48.204;11.556;2023-05-10T05:37:35;95696.78;;;10.64;100.00
57606;BME280;43430;48.204;11.556;2023-05-10T05:40:01;95694.59;;;10.61;100.00
57606;BME280;43430;48.204;11.556;2023-05-10T05:42:27;95700.31;;;10.70;100.00
57606;BME280;43430;48.204;11.556;2023-05-10T05:44:52;95699.75;;;10.68;100.00
57606;BME280;43430;48.204;11.556;2023-05-10T05:47:17;95702.75;;;10.60;100.00
57606;BME280;43430;48.204;11.556;2023-05-10T05:49:43;95700.31;;;10.70;100.00
57606;BME280;43430;48.204;11.556;2023-05-10T05:52:11;95704.22;;;10.67;100.00
57606;BME280;43430;48.204;11.556;2023-05-10T05:54:36;95709.41;;;10.74;100.00
57606;BME280;43430;48.204;11.556;2023-05-10T05:57:02;95701.34;;;10.69;100.00
57606;BME280;43430;48.204;11.556;2023-05-10T05:59:28;95704.81;;;10.81;100.00
57606;BME280;43430;48.204;11.556;2023-05-10T06:01:53;95714.44;;;10.87;100.00
57606;BME280;43430;48.204;11.556;2023-05-10T06:04:18;95719.22;;;10.90;100.00
57606;BME280;43430;48.204;11.556;2023-05-10T06:06:44;95719.81;;;10.92;100.00
57606;BME280;43430;48.204;11.556;2023-05-10T06:09:09;95712.94;;;10.80;100.00
57606;BME280;43430;48.204;11.556;2023-05-10T06:11:35;95720.72;;;10.86;100.00
57606;BME280;43430;48.204;11.556;2023-05-10T06:14:01;95728.06;;;10.96;100.00
57606;BME280;43430;48.204;11.556;2023-05-10T06:16:27;95725.69;;;10.95;100.00
57606;BME280;43430;48.204;11.556;2023-05-10T06:18:53;95736.25;;;10.95;100.00
57606;BME280;43430;48.204;11.556;2023-05-10T06:21:18;95733.69;;;11.00;100.00
57606;BME280;43430;48.204;11.556;2023-05-10T06:23:43;95742.97;;;11.14;100.00
57606;BME280;43430;48.204;11.556;2023-05-10T06:26:09;95739.44;;;11.20;100.00
57606;BME280;43430;48.204;11.556;2023-05-10T06:28:34;95744.91;;;11.30;100.00
57606;BME280;43430;48.204;11.556;2023-05-10T06:31:00;95744.47;;;11.22;100.00
57606;BME280;43430;48.204;11.556;2023-05-10T06:33:25;95750.56;;;11.22;100.00
57606;BME280;43430;48.204;11.556;2023-05-10T06:35:51;95758.13;;;11.30;100.00
57606;BME280;43430;48.204;11.556;2023-05-10T06:38:17;95752.47;;;11.38;100.00
57606;BME280;43430;48.204;11.556;2023-05-10T06:40:42;95753.63;;;11.43;100.00
57606;BME280;43430;48.204;11.556;2023-05-10T06:43:08;95755.56;;;11.35;100.00
57606;BME280;43430;48.204;11.556;2023-05-10T06:45:33;95749.03;;;11.38;100.00
57606;BME280;43430;48.204;11.556;2023-05-10T06:47:59;95746.84;;;11.47;100.00
57606;BME280;43430;48.204;11.556;2023-05-10T06:50:24;95745.94;;;11.53;100.00
57606;BME280;43430;48.204;11.556;2023-05-10T06:52:50;95746.59;;;11.60;100.00
57606;BME280;43430;48.204;11.556;2023-05-10T06:55:15;95757.47;;;11.75;100.00
57606;BME280;43430;48.204;11.556;2023-05-10T06:57:41;95741.53;;;11.70;100.00
57606;BME280;43430;48.204;11.556;2023-05-10T07:00:07;95743.63;;;11.97;100.00
57606;BME280;43430;48.204;11.556;2023-05-10T07:02:32;95742.75;;;12.20;100.00
57606;BME280;43430;48.204;11.556;2023-05-10T07:04:58;95746.00;;;12.10;100.00
57606;BME280;43430;48.204;11.556;2023-05-10T07:07:23;95740.66;;;12.22;100.00
57606;BME280;43430;48.204;11.556;2023-05-10T07:09:49;95742.34;;;12.28;100.00
57606;BME280;43430;48.204;11.556;2023-05-10T07:12:15;95741.78;;;12.26;100.00
57606;BME280;43430;48.204;11.556;2023-05-10T07:14:40;95743.72;;;12.30;100.00
57606;BME280;43430;48.204;11.556;2023-05-10T07:17:06;95735.38;;;12.39;100.00
57606;BME280;43430;48.204;11.556;2023-05-10T07:19:31;95739.56;;;12.34;100.00
57606;BME280;43430;48.204;11.556;2023-05-10T07:21:57;95744.72;;;12.58;100.00
57606;BME280;43430;48.204;11.556;2023-05-10T07:24:23;95736.63;;;12.81;100.00
57606;BME280;43430;48.204;11.556;2023-05-10T07:26:49;95721.69;;;12.58;100.00
57606;BME280;43430;48.204;11.556;2023-05-10T07:29:14;95724.13;;;12.60;100.00
57606;BME280;43430;48.204;11.556;2023-05-10T07:31:40;95710.09;;;12.59;100.00
57606;BME280;43430;48.204;11.556;2023-05-10T07:34:07;95709.38;;;12.64;100.00
57606;BME280;43430;48.204;11.556;2023-05-10T07:36:32;95711.75;;;12.49;100.00
57606;BME280;43430;48.204;11.556;2023-05-10T07:38:57;95703.59;;;12.67;100.00
57606;BME280;43430;48.204;11.556;2023-05-10T07:41:23;95695.50;;;12.57;100.00
57606;BME280;43430;48.204;11.556;2023-05-10T07:43:48;95697.25;;;12.68;100.00
57606;BME280;43430;48.204;11.556;2023-05-10T07:46:14;95700.38;;;12.82;100.00
57606;BME280;43430;48.204;11.556;2023-05-10T07:48:39;95703.00;;;12.99;100.00
57606;BME280;43430;48.204;11.556;2023-05-10T07:51:04;95678.13;;;13.00;100.00
57606;BME280;43430;48.204;11.556;2023-05-10T07:53:32;95672.31;;;13.20;100.00
57606;BME280;43430;48.204;11.556;2023-05-10T07:55:58;95662.97;;;13.12;100.00
57606;BME280;43430;48.204;11.556;2023-05-10T07:58:24;95674.47;;;13.01;100.00
57606;BME280;43430;48.204;11.556;2023-05-10T08:00:49;95676.09;;;13.07;100.00
57606;BME280;43430;48.204;11.556;2023-05-10T08:03:15;95680.16;;;12.93;100.00
57606;BME280;43430;48.204;11.556;2023-05-10T08:05:41;95672.69;;;12.90;100.00
57606;BME280;43430;48.204;11.556;2023-05-10T08:08:06;95674.41;;;12.79;100.00
57606;BME280;43430;48.204;11.556;2023-05-10T08:10:32;95682.75;;;12.88;100.00
57606;BME280;43430;48.204;11.556;2023-05-10T08:12:57;95681.38;;;12.85;100.00
57606;BME280;43430;48.204;11.556;2023-05-10T08:15:24;95675.56;;;13.05;100.00
57606;BME280;43430;48.204;11.556;2023-05-10T08:17:51;95688.50;;;13.40;100.00
57606;BME280;43430;48.204;11.556;2023-05-10T08:20:17;95671.81;;;13.40;100.00
57606;BME280;43430;48.204;11.556;2023-05-10T08:22:45;95658.59;;;13.45;100.00
57606;BME280;43430;48.204;11.556;2023-05-10T08:25:10;95657.94;;;13.54;100.00
57606;BME280;43430;48.204;11.556;2023-05-10T08:27:35;95668.38;;;13.88;100.00
57606;BME280;43430;48.204;11.556;2023-05-10T08:30:01;95652.75;;;13.92;100.00
57606;BME280;43430;48.204;11.556;2023-05-10T08:32:26;95643.53;;;13.72;100.00
57606;BME280;43430;48.204;11.556;2023-05-10T08:34:51;95641.84;;;13.61;100.00
57606;BME280;43430;48.204;11.556;2023-05-10T08:37:16;95649.34;;;13.69;100.00
57606;BME280;43430;48.204;11.556;2023-05-10T08:39:42;95633.75;;;13.46;100.00
57606;BME280;43430;48.204;11.556;2023-05-10T08:42:08;95655.41;;;13.43;100.00
57606;BME280;43430;48.204;11.556;2023-05-10T08:44:35;95664.81;;;13.56;100.00
57606;BME280;43430;48.204;11.556;2023-05-10T08:47:06;95649.16;;;13.49;100.00
57606;BME280;43430;48.204;11.556;2023-05-10T08:49:34;95647.47;;;13.43;100.00
57606;BME280;43430;48.204;11.556;2023-05-10T08:52:03;95649.44;;;13.52;100.00
57606;BME280;43430;48.204;11.556;2023-05-10T08:54:30;95649.78;;;13.61;100.00
57606;BME280;43430;48.204;11.556;2023-05-10T08:56:56;95650.25;;;13.53;100.00
57606;BME280;43430;48.204;11.556;2023-05-10T08:59:22;95656.91;;;13.83;100.00
57606;BME280;43430;48.204;11.556;2023-05-10T09:01:49;95657.16;;;14.08;100.00
57606;BME280;43430;48.204;11.556;2023-05-10T09:04:15;95640.16;;;14.04;100.00
57606;BME280;43430;48.204;11.556;2023-05-10T09:06:41;95633.59;;;13.85;100.00
57606;BME280;43430;48.204;11.556;2023-05-10T09:09:06;95631.47;;;13.82;100.00
57606;BME280;43430;48.204;11.556;2023-05-10T09:11:32;95633.84;;;14.10;100.00
57606;BME280;43430;48.204;11.556;2023-05-10T09:13:57;95627.03;;;14.19;100.00
57606;BME280;43430;48.204;11.556;2023-05-10T09:16:23;95623.59;;;14.24;100.00
57606;BME280;43430;48.204;11.556;2023-05-10T09:18:49;95613.66;;;14.04;100.00
57606;BME280;43430;48.204;11.556;2023-05-10T09:21:14;95622.25;;;13.89;100.00
57606;BME280;43430;48.204;11.556;2023-05-10T09:23:44;95635.50;;;13.62;100.00
57606;BME280;43430;48.204;11.556;2023-05-10T09:26:10;95633.84;;;13.56;100.00
57606;BME280;43430;48.204;11.556;2023-05-10T09:28:51;95649.69;;;13.51;100.00
57606;BME280;43430;48.204;11.556;2023-05-10T09:31:17;95660.09;;;13.36;100.00
57606;BME280;43430;48.204;11.556;2023-05-10T09:33:46;95669.34;;;13.16;100.00
57606;BME280;43430;48.204;11.556;2023-05-10T09:36:12;95681.78;;;13.33;100.00
57606;BME280;43430;48.204;11.556;2023-05-10T09:38:48;95679.31;;;13.48;100.00
57606;BME280;43430;48.204;11.556;2023-05-10T09:41:18;95658.38;;;13.46;100.00
57606;BME280;43430;48.204;11.556;2023-05-10T09:43:44;95645.56;;;13.60;100.00
57606;BME280;43430;48.204;11.556;2023-05-10T09:46:09;95646.41;;;13.93;100.00
57606;BME280;43430;48.204;11.556;2023-05-10T09:48:46;95634.63;;;14.11;100.00
57606;BME280;43430;48.204;11.556;2023-05-10T09:51:22;95635.34;;;14.28;100.00
57606;BME280;43430;48.204;11.556;2023-05-10T09:53:48;95619.63;;;14.21;100.00
57606;BME280;43430;48.204;11.556;2023-05-10T09:56:33;95615.56;;;14.14;100.00
57606;BME280;43430;48.204;11.556;2023-05-10T09:59:03;95619.50;;;14.38;100.00
57606;BME280;43430;48.204;11.556;2023-05-10T10:01:29;95603.44;;;14.55;100.00
57606;BME280;43430;48.204;11.556;2023-05-10T10:03:54;95585.31;;;14.47;100.00
57606;BME280;43430;48.204;11.556;2023-05-10T10:06:20;95583.28;;;14.54;100.00
57606;BME280;43430;48.204;11.556;2023-05-10T10:08:45;95582.06;;;14.72;100.00
57606;BME280;43430;48.204;11.556;2023-05-10T10:11:11;95582.94;;;14.93;100.00
57606;BME280;43430;48.204;11.556;2023-05-10T10:13:36;95583.78;;;14.93;100.00
57606;BME280;43430;48.204;11.556;2023-05-10T10:16:02;95568.41;;;15.01;100.00
57606;BME280;43430;48.204;11.556;2023-05-10T10:18:28;95570.31;;;15.15;100.00
57606;BME280;43430;48.204;11.556;2023-05-10T10:20:55;95564.00;;;15.32;100.00
57606;BME280;43430;48.204;11.556;2023-05-10T10:23:21;95564.53;;;15.29;100.00
57606;BME280;43430;48.204;11.556;2023-05-10T10:25:47;95560.78;;;15.30;100.00
57606;BME280;43430;48.204;11.556;2023-05-10T10:28:26;95562.72;;;15.65;100.00
57606;BME280;43430;48.204;11.556;2023-05-10T10:31:00;95549.66;;;15.48;100.00
57606;BME280;43430;48.204;11.556;2023-05-10T10:34:03;95558.19;;;15.50;100.00
57606;BME280;43430;48.204;11.556;2023-05-10T10:36:30;95549.72;;;15.63;100.00
57606;BME280;43430;48.204;11.556;2023-05-10T10:38:59;95551.00;;;15.51;100.00
57606;BME280;43430;48.204;11.556;2023-05-10T10:57:32;95548.69;;;15.70;100.00
57606;BME280;43430;48.204;11.556;2023-05-10T11:00:20;95543.00;;;15.30;100.00
57606;BME280;43430;48.204;11.556;2023-05-10T11:02:57;95538.41;;;15.10;100.00
57606;BME280;43430;48.204;11.556;2023-05-10T11:05:23;95536.34;;;15.28;100.00
57606;BME280;43430;48.204;11.556;2023-05-10T11:07:58;95543.28;;;15.39;100.00
57606;BME280;43430;48.204;11.556;2023-05-10T11:10:25;95535.81;;;15.31;100.00
57606;BME280;43430;48.204;11.556;2023-05-10T11:12:52;95536.63;;;15.41;100.00
57606;BME280;43430;48.204;11.556;2023-05-10T11:15:19;95542.22;;;15.40;100.00
57606;BME280;43430;48.204;11.556;2023-05-10T11:17:44;95536.91;;;15.35;100.00
57606;BME280;43430;48.204;11.556;2023-05-10T11:20:14;95549.59;;;15.12;100.00
57606;BME280;43430;48.204;11.556;2023-05-10T11:22:49;95569.84;;;14.76;100.00
57606;BME280;43430;48.204;11.556;2023-05-10T11:25:16;95585.75;;;14.71;100.00
57606;BME280;43430;48.204;11.556;2023-05-10T11:27:42;95607.28;;;14.69;100.00
57606;BME280;43430;48.204;11.556;2023-05-10T11:30:09;95632.22;;;13.77;100.00
57606;BME280;43430;48.204;11.556;2023-05-10T11:32:38;95656.28;;;13.26;100.00
57606;BME280;43430;48.204;11.556;2023-05-10T11:35:10;95681.81;;;12.99;100.00
57606;BME280;43430;48.204;11.556;2023-05-10T11:37:37;95690.72;;;12.93;100.00
57606;BME280;43430;48.204;11.556;2023-05-10T11:40:07;95698.44;;;12.94;100.00
57606;BME280;43430;48.204;11.556;2023-05-10T11:42:36;95710.16;;;12.81;100.00
57606;BME280;43430;48.204;11.556;2023-05-10T11:45:02;95717.69;;;12.73;100.00
57606;BME280;43430;48.204;11.556;2023-05-10T11:47:27;95731.44;;;12.70;100.00
57606;BME280;43430;48.204;11.556;2023-05-10T11:49:53;95734.84;;;12.53;100.00
57606;BME280;43430;48.204;11.556;2023-05-10T11:52:18;95741.84;;;12.59;100.00
57606;BME280;43430;48.204;11.556;2023-05-10T11:54:54;95749.03;;;12.64;100.00
57606;BME280;43430;48.204;11.556;2023-05-10T11:57:21;95757.22;;;12.46;100.00
57606;BME280;43430;48.204;11.556;2023-05-10T11:59:53;95758.56;;;12.48;100.00
57606;BME280;43430;48.204;11.556;2023-05-10T12:02:20;95762.66;;;12.39;100.00
57606;BME280;43430;48.204;11.556;2023-05-10T12:04:46;95762.50;;;12.46;100.00
57606;BME280;43430;48.204;11.556;2023-05-10T12:07:11;95760.22;;;12.38;100.00
57606;BME280;43430;48.204;11.556;2023-05-10T12:09:37;95769.25;;;12.25;100.00
57606;BME280;43430;48.204;11.556;2023-05-10T12:12:02;95774.22;;;12.21;100.00
57606;BME280;43430;48.204;11.556;2023-05-10T12:14:27;95777.84;;;12.03;100.00
57606;BME280;43430;48.204;11.556;2023-05-10T12:16:54;95787.81;;;12.13;100.00
57606;BME280;43430;48.204;11.556;2023-05-10T12:19:22;95788.59;;;12.14;100.00
57606;BME280;43430;48.204;11.556;2023-05-10T12:21:47;95797.44;;;12.19;100.00
57606;BME280;43430;48.204;11.556;2023-05-10T12:24:13;95803.78;;;12.18;100.00
57606;BME280;43430;48.204;11.556;2023-05-10T12:26:41;95812.84;;;12.22;100.00
57606;BME280;43430;48.204;11.556;2023-05-10T12:31:56;95824.44;;;12.21;100.00
57606;BME280;43430;48.204;11.556;2023-05-10T12:34:25;95830.69;;;12.15;100.00
57606;BME280;43430;48.204;11.556;2023-05-10T12:36:52;95833.66;;;12.19;100.00
57606;BME280;43430;48.204;11.556;2023-05-10T12:39:18;95834.53;;;12.24;100.00
57606;BME280;43430;48.204;11.556;2023-05-10T12:41:43;95835.59;;;12.23;100.00
57606;BME280;43430;48.204;11.556;2023-05-10T12:44:08;95834.38;;;12.02;100.00
57606;BME280;43430;48.204;11.556;2023-05-10T12:46:34;95823.97;;;11.72;100.00
57606;BME280;43430;48.204;11.556;2023-05-10T12:48:59;95824.78;;;11.61;100.00
57606;BME280;43430;48.204;11.556;2023-05-10T12:51:24;95814.22;;;11.49;100.00
57606;BME280;43430;48.204;11.556;2023-05-10T12:53:49;95815.16;;;11.43;100.00
57606;BME280;43430;48.204;11.556;2023-05-10T12:56:15;95816.19;;;11.42;100.00
57606;BME280;43430;48.204;11.556;2023-05-10T12:58:40;95814.34;;;11.31;100.00
57606;BME280;43430;48.204;11.556;2023-05-10T13:01:06;95822.75;;;11.39;100.00
57606;BME280;43430;48.204;11.556;2023-05-10T13:03:31;95832.81;;;11.54;100.00
57606;BME280;43430;48.204;11.556;2023-05-10T13:05:56;95831.91;;;11.49;100.00
57606;BME280;43430;48.204;11.556;2023-05-10T13:08:22;95819.88;;;11.53;100.00
57606;BME280;43430;48.204;11.556;2023-05-10T13:10:48;95833.06;;;11.53;100.00
57606;BME280;43430;48.204;11.556;2023-05-10T13:13:13;95826.41;;;11.50;100.00